Time;durP1;ratioP1;P1;durP2;ratioP2;P2;SDS_P1;SDS_P2;PMS_P1;PMS_P2;Temp;Humidity;BMP_temperature;BMP_pressure;BME280_temperature;BME280_humidity;BME280_pressure;Samples;Min_cycle;Max_cycle;Signal;HPM_P1;HPM_P2
2023/04/30 00:00:01;;;;;;;11.23;7.90;;;;;;;7.01;100.00;101386.72;687132;28;4388;-77
2023/04/30 00:00:24;;;;;;;9.73;7.28;;;;;;;6.99;100.00;101378.00;689051;28;924;-76
2023/04/30 00:00:47;;;;;;;10.55;7.45;;;;;;;6.99;100.00;101388.41;686233;28;1393;-77
2023/04/30 00:01:08;;;;;;;9.90;7.60;;;;;;;7.03;100.00;101381.56;687879;28;1298;-77
2023/04/30 00:01:29;;;;;;;11.10;7.40;;;;;;;6.98;100.00;101377.13;690157;28;1216;-76
2023/04/30 00:01:49;;;;;;;11.80;7.60;;;;;;;6.98;100.00;101368.47;689068;28;1556;-76
2023/04/30 00:02:13;;;;;;;10.10;7.30;;;;;;;6.98;100.00;101352.88;690472;28;1261;-77
2023/04/30 00:02:34;;;;;;;9.50;7.20;;;;;;;6.98;100.00;101351.13;683351;28;4346;-77
2023/04/30 00:02:57;;;;;;;9.48;7.38;;;;;;;7.00;100.00;101364.16;686544;28;968;-76
2023/04/30 00:03:23;;;;;;;10.45;7.32;;;;;;;6.99;100.00;101359.78;686441;28;1311;-77
2023/04/30 00:03:53;;;;;;;11.75;7.38;;;;;;;6.99;100.00;101354.59;686477;28;941;-76
2023/04/30 00:04:17;;;;;;;11.60;7.43;;;;;;;6.99;100.00;101372.78;685525;28;1565;-76
2023/04/30 00:04:41;;;;;;;13.15;7.78;;;;;;;6.98;100.00;101384.94;688235;28;1343;-76
2023/04/30 00:05:04;;;;;;;9.98;6.82;;;;;;;7.05;100.00;101374.66;688187;28;1577;-76
2023/04/30 00:05:25;;;;;;;9.77;6.95;;;;;;;7.06;100.00;101384.22;687504;28;782;-77
2023/04/30 00:05:52;;;;;;;10.18;7.38;;;;;;;7.06;100.00;101372.09;676553;28;4340;-76
2023/04/30 00:06:15;;;;;;;11.00;7.30;;;;;;;7.07;100.00;101358.25;686755;28;1448;-76
2023/04/30 00:06:36;;;;;;;9.13;7.17;;;;;;;7.13;100.00;101375.69;684660;28;1519;-76
2023/04/30 00:06:57;;;;;;;10.57;7.43;;;;;;;7.14;100.00;101356.66;688549;28;1447;-77
2023/04/30 00:07:20;;;;;;;9.85;7.45;;;;;;;7.09;100.00;101377.38;687501;28;1256;-77
2023/04/30 00:07:41;;;;;;;10.02;7.10;;;;;;;7.11;100.00;101393.84;687718;28;726;-76
2023/04/30 00:08:03;;;;;;;10.50;7.00;;;;;;;7.12;100.00;101366.16;686308;28;1303;-77
2023/04/30 00:08:23;;;;;;;10.45;7.28;;;;;;;7.11;100.00;101383.47;686690;28;1076;-76
2023/04/30 00:08:46;;;;;;;10.27;6.93;;;;;;;7.08;100.00;101377.34;683954;28;4392;-76
2023/04/30 00:09:09;;;;;;;10.75;7.38;;;;;;;7.07;100.00;101359.97;683891;28;1202;-77
2023/04/30 00:09:33;;;;;;;10.57;7.32;;;;;;;7.08;100.00;101359.13;687391;28;1480;-76
2023/04/30 00:09:56;;;;;;;10.63;7.07;;;;;;;7.07;100.00;101384.25;685457;28;1585;-77
2023/04/30 00:10:17;;;;;;;10.60;7.40;;;;;;;7.08;100.00;101388.59;684577;28;1483;-77
2023/04/30 00:10:40;;;;;;;10.15;7.57;;;;;;;7.08;100.00;101373.00;683153;28;1382;-77
2023/04/30 00:11:01;;;;;;;9.10;6.87;;;;;;;7.09;100.00;101377.38;688873;28;1260;-76
2023/04/30 00:11:22;;;;;;;9.27;6.85;;;;;;;7.05;100.00;101357.34;689520;28;1659;-77
2023/04/30 00:11:43;;;;;;;10.10;7.00;;;;;;;7.06;100.00;101366.91;687136;28;4335;-76
2023/04/30 00:12:06;;;;;;;10.60;7.05;;;;;;;7.03;100.00;101398.00;686572;28;1205;-77
2023/04/30 00:12:27;;;;;;;10.30;7.15;;;;;;;7.03;100.00;101358.16;687650;28;1321;-77
2023/04/30 00:12:47;;;;;;;10.50;7.80;;;;;;;7.05;100.00;101370.34;686532;28;840;-76
2023/04/30 00:13:09;;;;;;;10.68;7.68;;;;;;;7.03;100.00;101378.94;685056;28;1174;-77
2023/04/30 00:13:41;;;;;;;9.95;6.65;;;;;;;7.05;100.00;101361.66;686787;28;869;-77
2023/04/30 00:14:01;;;;;;;9.05;6.75;;;;;;;7.05;100.00;101393.75;686991;28;1271;-77
2023/04/30 00:14:28;;;;;;;9.27;6.28;;;;;;;7.12;100.00;101356.63;693579;28;1141;-76
2023/04/30 00:15:02;;;;;;;;;;;;;;;;;;;;;
2023/04/30 00:15:25;;;;;;;9.38;6.95;;;;;;;7.12;100.00;101356.63;690828;28;1301;-77
2023/04/30 00:15:46;;;;;;;10.32;6.80;;;;;;;7.09;100.00;101345.25;686962;28;1555;-77
2023/04/30 00:16:07;;;;;;;10.93;6.75;;;;;;;7.09;100.00;101358.25;687452;28;1299;-76
2023/04/30 00:16:27;;;;;;;10.73;6.53;;;;;;;7.05;100.00;101359.06;686053;28;1315;-77
2023/04/30 00:16:50;;;;;;;11.70;6.90;;;;;;;7.04;100.00;101384.19;685806;28;1185;-77
2023/04/30 00:17:11;;;;;;;12.70;7.07;;;;;;;7.04;100.00;101378.97;686178;28;912;-76
2023/04/30 00:17:34;;;;;;;9.63;6.50;;;;;;;7.08;100.00;101360.00;685335;28;1182;-76
2023/04/30 00:17:55;;;;;;;9.20;6.90;;;;;;;7.11;100.00;101359.19;683610;28;4908;-77
2023/04/30 00:18:16;;;;;;;9.95;6.68;;;;;;;7.07;100.00;101363.44;683129;28;1218;-76
2023/04/30 00:18:42;;;;;;;10.30;6.55;;;;;;;7.06;100.00;101359.09;688803;28;1287;-76
2023/04/30 00:19:03;;;;;;;10.88;6.95;;;;;;;7.08;100.00;101380.81;686338;28;1233;-76
2023/04/30 00:19:26;;;;;;;10.43;6.97;;;;;;;7.08;100.00;101387.75;685146;28;1280;-76
2023/04/30 00:19:47;;;;;;;9.98;6.53;;;;;;;7.12;100.00;101377.41;686897;28;1714;-76
2023/04/30 00:20:08;;;;;;;8.73;6.10;;;;;;;7.12;100.00;101376.56;683884;28;1272;-77
2023/04/30 00:20:29;;;;;;;9.40;6.47;;;;;;;7.11;100.00;101360.06;681169;29;1372;-77
2023/04/30 00:20:55;;;;;;;8.63;6.43;;;;;;;7.08;100.00;101369.53;681349;28;4320;-77
2023/04/30 00:21:18;;;;;;;9.27;6.50;;;;;;;7.09;100.00;101366.97;684361;28;1488;-76
2023/04/30 00:21:42;;;;;;;8.80;6.57;;;;;;;7.07;100.00;101366.03;684017;28;1313;-77
2023/04/30 00:22:04;;;;;;;9.65;6.80;;;;;;;7.10;100.00;101402.53;683560;28;1414;-77
2023/04/30 00:22:27;;;;;;;9.98;6.70;;;;;;;7.13;100.00;101386.09;681889;29;1523;-77
2023/04/30 00:22:51;;;;;;;10.15;6.60;;;;;;;7.10;100.00;101362.63;685312;28;1369;-76
2023/04/30 00:23:11;;;;;;;10.38;6.68;;;;;;;7.14;100.00;101385.25;686459;28;1275;-76
2023/04/30 00:23:38;;;;;;;9.23;6.40;;;;;;;7.10;100.00;101368.72;689989;28;989;-76
2023/04/30 00:24:05;;;;;;;9.65;6.38;;;;;;;7.13;100.00;101378.28;683419;28;4766;-76
2023/04/30 00:24:27;;;;;;;9.13;6.70;;;;;;;7.18;100.00;101394.88;689356;28;1368;-76
2023/04/30 00:24:50;;;;;;;8.82;6.25;;;;;;;7.15;100.00;101403.47;690468;28;833;-76
2023/04/30 00:25:19;;;;;;;9.90;6.30;;;;;;;7.18;100.00;101401.81;684522;28;1304;-77
2023/04/30 00:25:47;;;;;;;9.35;6.30;;;;;;;7.14;100.00;101390.44;687466;28;3466;-77
2023/04/30 00:26:08;;;;;;;11.10;6.15;;;;;;;7.13;100.00;101389.59;688569;28;912;-77
2023/04/30 00:26:32;;;;;;;10.00;6.20;;;;;;;7.14;100.00;101390.44;687755;28;1228;-76
2023/04/30 00:26:53;;;;;;;9.35;6.47;;;;;;;7.10;100.00;101368.72;681876;28;4293;-76
2023/04/30 00:27:14;;;;;;;9.10;6.28;;;;;;;7.09;100.00;101382.56;686647;28;1764;-76
2023/04/30 00:27:41;;;;;;;9.80;6.47;;;;;;;7.07;100.00;101388.56;686169;28;1383;-76
2023/04/30 00:28:07;;;;;;;9.98;6.68;;;;;;;7.06;100.00;101374.72;683236;28;925;-76
2023/04/30 00:28:28;;;;;;;9.45;6.38;;;;;;;7.09;100.00;101392.97;687856;28;945;-76
2023/04/30 00:28:57;;;;;;;9.98;6.80;;;;;;;7.11;100.00;101375.66;687739;28;1510;-76
2023/04/30 00:29:18;;;;;;;9.82;6.75;;;;;;;7.10;100.00;101386.94;686082;28;1238;-76
2023/04/30 00:29:40;;;;;;;8.82;6.32;;;;;;;7.11;100.00;101409.47;675214;28;4320;-77
2023/04/30 00:30:00;;;;;;;9.27;6.13;;;;;;;7.10;100.00;101381.72;683159;28;1339;-77
2023/04/30 00:30:24;;;;;;;9.82;6.63;;;;;;;7.10;100.00;101368.72;680552;28;1565;-76
2023/04/30 00:30:45;;;;;;;10.23;6.90;;;;;;;7.09;100.00;101387.75;682435;28;1246;-77
2023/04/30 00:31:15;;;;;;;10.60;6.77;;;;;;;7.07;100.00;101398.97;680693;28;1355;-77
2023/04/30 00:31:38;;;;;;;10.23;6.65;;;;;;;7.08;100.00;101375.59;682284;29;1336;-76
2023/04/30 00:31:59;;;;;;;11.50;6.88;;;;;;;7.07;100.00;101379.03;683507;28;1690;-76
2023/04/30 00:32:25;;;;;;;10.48;6.63;;;;;;;7.08;100.00;101377.34;684644;28;1448;-77
2023/04/30 00:32:51;;;;;;;9.52;6.80;;;;;;;7.07;100.00;101397.25;677536;28;4382;-76
2023/04/30 00:33:14;;;;;;;9.93;6.50;;;;;;;7.07;100.00;101410.25;684924;28;1387;-76
2023/04/30 00:33:35;;;;;;;9.68;6.60;;;;;;;7.07;100.00;101373.84;684001;28;1344;-77
2023/04/30 00:33:56;;;;;;;10.00;6.50;;;;;;;7.05;100.00;101396.34;690920;28;1189;-76
2023/04/30 00:34:17;;;;;;;9.63;6.65;;;;;;;7.03;100.00;101387.63;693084;28;1204;-76
2023/04/30 00:34:53;;;;;;;9.13;6.60;;;;;;;7.06;100.00;101418.91;692623;28;775;-76
2023/04/30 00:35:25;;;;;;;9.43;6.50;;;;;;;7.04;100.00;101380.72;693060;28;1092;-77
2023/04/30 00:35:46;;;;;;;9.65;6.60;;;;;;;7.03;100.00;101403.22;689870;28;4277;-76
2023/04/30 00:36:14;;;;;;;9.00;6.50;;;;;;;7.03;100.00;101394.56;686346;28;1311;-76
2023/04/30 00:36:39;;;;;;;9.70;6.45;;;;;;;6.99;100.00;101401.41;685943;28;1462;-78
2023/04/30 00:37:00;;;;;;;9.90;6.72;;;;;;;7.00;100.00;101395.34;679713;28;1308;-76
2023/04/30 00:37:20;;;;;;;10.32;6.53;;;;;;;7.01;100.00;101383.25;683634;28;1290;-76
2023/04/30 00:37:44;;;;;;;8.82;6.20;;;;;;;6.99;100.00;101373.69;684033;28;1253;-77
2023/04/30 00:38:07;;;;;;;8.70;6.65;;;;;;;6.95;100.00;101389.16;683299;28;849;-76
2023/04/30 00:38:30;;;;;;;10.75;7.10;;;;;;;6.96;100.00;101406.53;683970;28;822;-77
2023/04/30 00:38:51;;;;;;;9.20;6.55;;;;;;;6.92;100.00;101382.22;681502;28;4308;-76
2023/04/30 00:39:12;;;;;;;8.40;6.35;;;;;;;6.93;100.00;101383.09;681659;28;1382;-77
2023/04/30 00:39:33;;;;;;;9.77;6.47;;;;;;;6.93;100.00;101386.53;687818;28;1209;-76
2023/04/30 00:39:53;;;;;;;10.02;6.57;;;;;;;6.92;100.00;101415.09;683314;28;1197;-76
2023/04/30 00:40:17;;;;;;;9.77;6.43;;;;;;;6.89;100.00;101383.84;690568;28;782;-76
2023/04/30 00:40:40;;;;;;;9.68;6.07;;;;;;;6.86;100.00;101381.19;690343;28;904;-77
2023/04/30 00:41:01;;;;;;;10.13;6.43;;;;;;;6.84;100.00;101403.66;688625;28;1604;-76
2023/04/30 00:41:22;;;;;;;8.50;6.13;;;;;;;6.84;100.00;101393.25;688716;28;1325;-76
2023/04/30 00:41:45;;;;;;;8.77;6.10;;;;;;;6.84;100.00;101401.97;687744;28;4400;-77
2023/04/30 00:42:08;;;;;;;9.77;6.30;;;;;;;6.86;100.00;101383.78;690337;28;951;-76
2023/04/30 00:42:29;;;;;;;10.07;6.50;;;;;;;6.85;100.00;101379.44;688289;28;1399;-77
2023/04/30 00:42:54;;;;;;;9.82;6.80;;;;;;;6.83;100.00;101410.59;686139;28;1045;-76
2023/04/30 00:43:20;;;;;;;9.60;6.78;;;;;;;6.84;100.00;101382.88;689781;28;904;-76
2023/04/30 00:43:41;;;;;;;9.20;6.65;;;;;;;6.82;100.00;101381.09;687767;28;1575;-77
2023/04/30 00:44:05;;;;;;;9.13;6.75;;;;;;;6.84;100.00;101385.47;683308;28;1348;-76
2023/04/30 00:44:26;;;;;;;9.88;6.38;;;;;;;6.82;100.00;101409.69;684868;28;1359;-76
2023/04/30 00:44:47;;;;;;;10.32;6.43;;;;;;;6.89;100.00;101389.06;684704;28;4466;-76
2023/04/30 00:45:08;;;;;;;9.25;6.20;;;;;;;6.92;100.00;101383.91;680761;28;1071;-76
2023/04/30 00:45:31;;;;;;;9.35;6.55;;;;;;;6.94;100.00;101421.22;679862;29;1956;-77
2023/04/30 00:45:51;;;;;;;10.20;6.63;;;;;;;6.91;100.00;101400.34;680717;28;1622;-77
2023/04/30 00:46:16;;;;;;;9.60;6.82;;;;;;;6.93;100.00;101416.88;687418;28;1467;-77
2023/04/30 00:46:37;;;;;;;9.07;6.73;;;;;;;6.91;100.00;101384.75;687727;28;730;-77
2023/04/30 00:47:00;;;;;;;9.80;6.78;;;;;;;6.88;100.00;101402.88;686780;28;1256;-77
2023/04/30 00:47:23;;;;;;;10.15;6.70;;;;;;;6.86;100.00;101404.59;685785;28;1559;-76
2023/04/30 00:47:44;;;;;;;9.77;6.45;;;;;;;6.85;100.00;101408.03;685686;28;4343;-77
2023/04/30 00:48:05;;;;;;;10.60;6.80;;;;;;;6.85;100.00;101403.69;683799;28;1240;-76
2023/04/30 00:48:26;;;;;;;10.63;6.73;;;;;;;6.84;100.00;101377.66;680627;29;1178;-76
2023/04/30 00:48:47;;;;;;;10.32;6.93;;;;;;;6.83;100.00;101384.59;683524;28;1415;-76
2023/04/30 00:49:09;;;;;;;9.48;7.00;;;;;;;6.82;100.00;101388.03;685780;28;1336;-77
2023/04/30 00:49:29;;;;;;;9.32;6.85;;;;;;;6.82;100.00;101377.63;690013;28;1031;-76
2023/04/30 00:49:53;;;;;;;9.93;7.00;;;;;;;6.81;100.00;101391.47;689502;28;1065;-77
2023/04/30 00:50:17;;;;;;;9.77;6.68;;;;;;;6.81;100.00;101407.97;684790;28;1375;-77
2023/04/30 00:50:38;;;;;;;9.25;6.72;;;;;;;6.81;100.00;101391.47;684379;28;4380;-77
2023/04/30 00:51:03;;;;;;;9.18;6.80;;;;;;;6.77;100.00;101406.13;682547;28;1574;-77
2023/04/30 00:51:24;;;;;;;10.68;6.78;;;;;;;6.77;100.00;101387.94;687471;28;1497;-76
2023/04/30 00:51:45;;;;;;;9.45;6.40;;;;;;;6.78;100.00;101427.78;689562;28;989;-76
2023/04/30 00:52:08;;;;;;;10.80;6.82;;;;;;;6.76;100.00;101406.97;688910;28;1367;-76
2023/04/30 00:52:34;;;;;;;9.80;6.85;;;;;;;6.74;100.00;101385.28;687118;28;1304;-77
2023/04/30 00:52:56;;;;;;;10.18;6.78;;;;;;;6.76;100.00;101399.19;683167;28;1245;-76
2023/04/30 00:53:22;;;;;;;9.52;6.30;;;;;;;6.76;100.00;101391.38;689752;28;1288;-76
2023/04/30 00:53:45;;;;;;;10.57;6.82;;;;;;;6.76;100.00;101388.78;687092;28;4356;-76
2023/04/30 00:54:10;;;;;;;10.38;6.70;;;;;;;6.76;100.00;101393.09;686111;28;1345;-76
2023/04/30 00:54:33;;;;;;;9.60;6.72;;;;;;;6.77;100.00;101394.84;688788;28;1397;-76
2023/04/30 00:54:55;;;;;;;10.32;6.97;;;;;;;6.76;100.00;101422.56;682991;28;1204;-76
2023/04/30 00:55:18;;;;;;;9.73;6.57;;;;;;;6.75;100.00;101413.00;685368;28;1379;-76
2023/04/30 00:55:43;;;;;;;9.80;6.78;;;;;;;6.76;100.00;101412.16;683329;28;1250;-76
2023/04/30 00:56:05;;;;;;;9.30;6.75;;;;;;;6.78;100.00;101417.41;682130;28;940;-77
2023/04/30 00:56:28;;;;;;;10.27;6.53;;;;;;;6.77;100.00;101423.44;683942;28;1349;-76
2023/04/30 00:56:54;;;;;;;10.15;6.85;;;;;;;6.76;100.00;101417.38;683486;28;4456;-77
2023/04/30 00:57:15;;;;;;;10.52;7.10;;;;;;;6.74;100.00;101386.97;680967;28;1377;-77
2023/04/30 00:57:38;;;;;;;10.85;6.65;;;;;;;6.72;100.00;101418.13;684954;28;1197;-76
2023/04/30 00:58:01;;;;;;;9.75;6.50;;;;;;;6.70;100.00;101413.75;682538;28;1279;-76
2023/04/30 00:58:24;;;;;;;9.52;6.38;;;;;;;6.69;100.00;101414.56;685016;28;1368;-76
2023/04/30 00:58:48;;;;;;;10.55;6.38;;;;;;;6.70;100.00;101388.66;687826;28;1063;-77
2023/04/30 00:59:13;;;;;;;10.13;6.47;;;;;;;6.70;100.00;101419.84;686068;28;1020;-77
2023/04/30 00:59:34;;;;;;;10.20;6.70;;;;;;;6.70;100.00;101427.63;686766;28;4404;-77
2023/04/30 00:59:57;;;;;;;9.85;7.05;;;;;;;6.68;100.00;101386.84;685931;28;999;-77
2023/04/30 01:00:18;;;;;;;8.63;6.43;;;;;;;6.79;100.00;101385.38;683839;28;1541;-76
2023/04/30 01:00:45;;;;;;;9.85;6.72;;;;;;;6.79;100.00;101432.16;687498;28;1827;-76
2023/04/30 01:01:06;;;;;;;9.40;6.88;;;;;;;6.74;100.00;101387.88;684099;28;1572;-77
2023/04/30 01:01:30;;;;;;;10.93;7.20;;;;;;;6.69;100.00;101397.28;685018;28;1256;-76
2023/04/30 01:01:55;;;;;;;10.80;6.70;;;;;;;6.66;100.00;101405.00;686481;28;1308;-77
2023/04/30 01:02:21;;;;;;;10.02;6.53;;;;;;;6.66;100.00;101392.03;684288;28;1265;-76
2023/04/30 01:02:42;;;;;;;9.75;7.10;;;;;;;6.65;100.00;101406.72;682671;28;4505;-77
2023/04/30 01:03:06;;;;;;;11.00;7.00;;;;;;;6.62;100.00;101391.06;682696;28;1317;-76
2023/04/30 01:03:31;;;;;;;10.30;7.07;;;;;;;6.59;100.00;101413.47;684537;28;1381;-76
2023/04/30 01:03:55;;;;;;;10.45;7.28;;;;;;;6.60;100.00;101390.13;683507;28;1344;-76
2023/04/30 01:04:17;;;;;;;10.02;7.00;;;;;;;6.58;100.00;101427.34;686718;28;1387;-76
2023/04/30 01:04:38;;;;;;;10.52;6.80;;;;;;;6.58;100.00;101389.25;686823;28;1439;-76
2023/04/30 01:05:05;;;;;;;10.18;6.88;;;;;;;6.56;100.00;101416.03;683611;28;1261;-76
2023/04/30 01:05:28;;;;;;;10.27;7.20;;;;;;;6.57;100.00;101435.97;683968;28;1592;-76
2023/04/30 01:05:49;;;;;;;11.13;6.97;;;;;;;6.58;100.00;101388.38;681409;28;4448;-76
2023/04/30 01:06:10;;;;;;;9.90;6.80;;;;;;;6.58;100.00;101388.38;683392;28;1413;-77
2023/04/30 01:06:33;;;;;;;10.00;6.67;;;;;;;6.56;100.00;101397.84;688083;28;1347;-76
2023/04/30 01:06:55;;;;;;;10.05;6.97;;;;;;;6.65;100.00;101391.13;687503;28;1123;-76
2023/04/30 01:07:26;;;;;;;9.82;7.28;;;;;;;6.64;100.00;101412.75;689521;28;1406;-75
2023/04/30 01:07:48;;;;;;;9.88;6.70;;;;;;;6.62;100.00;101395.41;684441;28;1266;-77
2023/04/30 01:08:20;;;;;;;11.45;7.05;;;;;;;6.58;100.00;101391.84;682724;29;901;-77
2023/04/30 01:08:41;;;;;;;10.02;6.45;;;;;;;6.58;100.00;101386.63;684624;28;4381;-76
2023/04/30 01:09:05;;;;;;;10.75;6.72;;;;;;;6.58;100.00;101393.56;680318;28;1532;-77
2023/04/30 01:09:27;;;;;;;10.35;6.63;;;;;;;6.56;100.00;101390.94;681435;29;1620;-77
2023/04/30 01:09:56;;;;;;;10.63;6.65;;;;;;;6.53;100.00;101416.81;684340;28;1353;-77
2023/04/30 01:10:34;;;;;;;9.60;6.55;;;;;;;6.51;100.00;101408.13;684726;28;858;-77
2023/04/30 01:11:27;;;;;;;10.88;6.68;;;;;;;6.55;100.00;101399.56;685056;28;1412;-77
2023/04/30 01:12:06;;;;;;;9.90;7.20;;;;;;;6.54;100.00;101392.59;684668;28;4288;-76
2023/04/30 01:12:42;;;;;;;10.07;6.78;;;;;;;6.55;100.00;101396.06;685576;28;1375;-76
2023/04/30 01:13:14;;;;;;;10.00;6.75;;;;;;;6.54;100.00;101391.75;688325;28;965;-76
2023/04/30 01:13:42;;;;;;;10.13;6.90;;;;;;;6.54;100.00;101397.81;683541;28;1315;-76
2023/04/30 01:14:07;;;;;;;9.63;6.80;;;;;;;6.55;100.00;101396.06;680618;28;1316;-76
2023/04/30 01:14:34;;;;;;;9.75;6.63;;;;;;;6.55;100.00;101393.47;678053;29;1456;-76
2023/04/30 01:15:17;;;;;;;10.77;6.80;;;;;;;6.55;100.00;101393.47;682980;28;4718;-76
2023/04/30 01:15:57;;;;;;;10.60;6.97;;;;;;;6.52;100.00;101394.31;686130;28;1289;-76
2023/04/30 01:16:23;;;;;;;10.35;6.80;;;;;;;6.53;100.00;101395.16;690479;28;1067;-76
2023/04/30 01:16:53;;;;;;;9.38;6.78;;;;;;;6.54;100.00;101392.59;691455;28;904;-76
2023/04/30 01:17:27;;;;;;;10.10;6.82;;;;;;;6.52;100.00;101390.81;692664;28;1211;-77
2023/04/30 01:17:56;;;;;;;10.55;6.85;;;;;;;6.52;100.00;101390.81;692269;28;4326;-77
2023/04/30 01:18:30;;;;;;;10.02;7.13;;;;;;;6.55;100.00;101403.84;690010;28;1492;-76
2023/04/30 01:18:59;;;;;;;9.70;6.70;;;;;;;6.53;100.00;101396.03;690496;28;845;-77
2023/04/30 01:19:28;;;;;;;9.93;6.50;;;;;;;6.53;100.00;101387.38;691063;28;1454;-77
2023/04/30 01:19:49;;;;;;;10.55;7.30;;;;;;;6.50;100.00;101390.78;689161;28;1391;-76
2023/04/30 01:20:10;;;;;;;10.20;7.30;;;;;;;6.50;100.00;101395.97;682772;28;1199;-76
2023/04/30 01:20:32;;;;;;;11.43;7.25;;;;;;;6.48;100.00;101393.34;683123;28;1208;-76
2023/04/30 01:21:01;;;;;;;10.40;6.68;;;;;;;6.50;100.00;101389.91;683356;28;5011;-76
2023/04/30 01:21:23;;;;;;;9.73;6.57;;;;;;;6.51;100.00;101389.03;681115;28;1123;-76
2023/04/30 01:21:44;;;;;;;10.57;7.05;;;;;;;6.51;100.00;101389.03;684372;28;1252;-77
2023/04/30 01:22:10;;;;;;;10.60;7.40;;;;;;;6.50;100.00;101387.31;683564;28;3517;-76
2023/04/30 01:22:50;;;;;;;9.18;6.45;;;;;;;6.49;100.00;101420.19;686517;28;1414;-76
2023/04/30 01:23:38;;;;;;;9.60;6.72;;;;;;;6.50;100.00;101388.19;686773;28;1541;-77
2023/04/30 01:24:24;;;;;;;11.23;6.55;;;;;;;6.46;100.00;101414.91;685160;28;4728;-76
2023/04/30 01:25:16;;;;;;;9.32;6.43;;;;;;;6.44;100.00;101383.72;686874;28;1423;-77
2023/04/30 01:25:55;;;;;;;9.98;6.90;;;;;;;6.41;100.00;101395.75;687053;28;1910;-76
2023/04/30 01:26:45;;;;;;;9.80;6.32;;;;;;;6.42;100.00;101387.97;687722;28;830;-76
2023/04/30 01:27:09;;;;;;;10.50;7.18;;;;;;;6.42;100.00;101382.78;688112;28;5097;-77
2023/04/30 01:27:59;;;;;;;10.63;6.97;;;;;;;6.41;100.00;101396.63;689071;28;885;-76
2023/04/30 01:28:23;;;;;;;11.13;6.90;;;;;;;6.42;100.00;101387.97;692044;28;980;-76
2023/04/30 01:28:45;;;;;;;11.93;6.90;;;;;;;6.45;100.00;101393.28;689576;28;1762;-77
2023/04/30 01:29:14;;;;;;;10.05;6.78;;;;;;;6.46;100.00;101384.63;684782;28;1750;-77
2023/04/30 01:29:38;;;;;;;9.70;6.70;;;;;;;6.42;100.00;101392.31;685507;28;4330;-77
2023/04/30 01:30:06;;;;;;;10.77;6.90;;;;;;;6.43;100.00;101384.56;681739;28;1534;-76
2023/04/30 01:30:30;;;;;;;11.50;7.15;;;;;;;6.42;100.00;101380.19;685755;28;1441;-76
2023/04/30 01:30:51;;;;;;;12.27;6.95;;;;;;;6.45;100.00;101393.28;680019;29;1480;-76
2023/04/30 01:31:18;;;;;;;11.13;7.20;;;;;;;6.44;100.00;101432.19;685194;28;1451;-76
2023/04/30 01:31:51;;;;;;;9.70;6.85;;;;;;;6.45;100.00;101387.19;684029;28;982;-76
2023/04/30 01:32:17;;;;;;;11.50;7.68;;;;;;;6.48;100.00;101408.06;682153;29;1391;-76
2023/04/30 01:32:41;;;;;;;11.35;7.30;;;;;;;6.47;100.00;101388.13;676647;28;4412;-76
2023/04/30 01:33:02;;;;;;;10.57;7.20;;;;;;;6.47;100.00;101380.31;683479;28;1228;-76
2023/04/30 01:33:26;;;;;;;9.80;6.88;;;;;;;6.45;100.00;101401.06;684477;28;1531;-76
2023/04/30 01:33:53;;;;;;;10.30;6.47;;;;;;;6.46;100.00;101412.31;683970;28;1491;-76
2023/04/30 01:34:20;;;;;;;9.95;6.32;;;;;;;6.45;100.00;101402.75;684393;28;1324;-76
2023/04/30 01:34:56;;;;;;;11.45;7.15;;;;;;;6.46;100.00;101392.41;680641;28;1585;-77
2023/04/30 01:35:17;;;;;;;11.57;6.82;;;;;;;6.51;100.00;101402.03;682178;28;1199;-76
2023/04/30 01:36:13;;;;;;;9.73;6.43;;;;;;;6.50;100.00;101384.72;674026;28;4339;-77
2023/04/30 01:37:01;;;;;;;10.63;6.97;;;;;;;6.46;100.00;101382.03;681492;28;1374;-76
2023/04/30 01:37:41;;;;;;;10.82;7.07;;;;;;;6.44;100.00;101385.44;688304;28;896;-77
2023/04/30 01:38:23;;;;;;;9.73;6.53;;;;;;;6.52;100.00;101383.00;684743;28;1391;-77
2023/04/30 01:39:28;;;;;;;9.85;6.65;;;;;;;6.60;100.00;101378.88;687715;28;5128;-76
2023/04/30 01:40:14;;;;;;;10.73;7.22;;;;;;;6.56;100.00;101377.94;692818;28;809;-77
2023/04/30 01:40:47;;;;;;;10.32;6.45;;;;;;;6.55;100.00;101376.19;689518;28;4965;-77
2023/04/30 01:41:27;;;;;;;11.43;6.68;;;;;;;6.53;100.00;101388.25;685522;28;1117;-76
2023/04/30 01:42:15;;;;;;;10.00;6.72;;;;;;;6.53;100.00;101380.44;686845;28;4286;-76
2023/04/30 01:42:46;;;;;;;9.95;6.88;;;;;;;6.50;100.00;101400.31;691029;28;1374;-77
2023/04/30 01:43:16;;;;;;;9.63;6.70;;;;;;;6.47;100.00;101396.78;687790;28;1265;-77
2023/04/30 01:44:04;;;;;;;12.48;6.95;;;;;;;6.48;100.00;101385.53;687473;28;1115;-76
2023/04/30 01:44:46;;;;;;;9.80;6.80;;;;;;;6.48;100.00;101376.88;689650;28;1474;-76
2023/04/30 01:45:12;;;;;;;9.68;6.82;;;;;;;6.46;100.00;101374.22;684550;28;4900;-77
2023/04/30 01:45:35;;;;;;;10.70;7.35;;;;;;;6.51;100.00;101376.06;687092;28;1986;-75
2023/04/30 01:46:23;;;;;;;9.32;6.93;;;;;;;6.50;100.00;101379.53;687506;28;1502;-77
2023/04/30 01:46:57;;;;;;;10.90;6.68;;;;;;;6.47;100.00;101378.59;684958;28;1674;-77
2023/04/30 01:47:31;;;;;;;9.57;6.82;;;;;;;6.48;100.00;101367.38;682758;28;1268;-77
2023/04/30 01:48:05;;;;;;;10.65;6.68;;;;;;;6.51;100.00;101386.44;677966;29;4353;-77
2023/04/30 01:48:56;;;;;;;10.43;6.80;;;;;;;6.53;100.00;101377.84;682457;28;1069;-77
2023/04/30 01:49:49;;;;;;;9.60;6.97;;;;;;;6.57;100.00;101384.00;684641;28;1589;-76
2023/04/30 01:50:38;;;;;;;9.52;6.80;;;;;;;6.65;100.00;101372.06;687130;28;1089;-77
2023/04/30 01:51:08;;;;;;;10.90;6.72;;;;;;;6.62;100.00;101375.47;690924;28;4989;-76
2023/04/30 01:51:45;;;;;;;10.27;6.90;;;;;;;6.59;100.00;101371.91;689878;28;1248;-76
2023/04/30 01:52:27;;;;;;;10.10;6.80;;;;;;;6.62;100.00;101374.59;687205;28;1253;-76
2023/04/30 01:52:52;;;;;;;10.18;7.20;;;;;;;6.61;100.00;101375.44;686099;28;862;-76
2023/04/30 01:53:20;;;;;;;9.88;7.00;;;;;;;6.56;100.00;101396.13;683744;28;1264;-77
2023/04/30 01:53:45;;;;;;;9.30;6.60;;;;;;;6.55;100.00;101372.69;686775;28;4326;-76
2023/04/30 01:54:22;;;;;;;9.75;6.20;;;;;;;6.53;100.00;101396.03;690306;28;1227;-76
2023/04/30 01:54:51;;;;;;;12.27;7.13;;;;;;;6.53;100.00;101371.78;684361;28;1498;-76
2023/04/30 01:55:29;;;;;;;10.77;7.22;;;;;;;6.51;100.00;101394.25;680859;28;1238;-77
2023/04/30 01:56:03;;;;;;;10.07;6.90;;;;;;;6.52;100.00;101373.53;685399;28;877;-76
2023/04/30 01:56:32;;;;;;;10.07;6.82;;;;;;;6.53;100.00;101374.38;682957;28;1498;-76
2023/04/30 01:57:08;;;;;;;11.98;7.00;;;;;;;6.56;100.00;101400.44;681115;28;4773;-77
2023/04/30 01:57:52;;;;;;;10.98;7.25;;;;;;;6.54;100.00;101381.34;687194;28;1284;-77
2023/04/30 01:58:16;;;;;;;10.88;6.93;;;;;;;6.49;100.00;101365.63;688291;28;1584;-76
2023/04/30 01:58:41;;;;;;;12.07;7.43;;;;;;;6.47;100.00;101378.59;685373;28;1232;-77
2023/04/30 01:59:12;;;;;;;12.02;7.18;;;;;;;6.48;100.00;101369.97;682938;28;912;-76
2023/04/30 01:59:38;;;;;;;11.15;7.28;;;;;;;6.53;100.00;101400.38;686212;28;4498;-77
2023/04/30 02:00:03;;;;;;;10.35;6.95;;;;;;;6.48;100.00;101395.94;683490;28;1512;-76
2023/04/30 02:00:34;;;;;;;10.32;7.00;;;;;;;6.50;100.00;101406.38;686524;28;1493;-76
2023/04/30 02:00:57;;;;;;;12.77;7.82;;;;;;;6.46;100.00;101386.34;686885;28;1195;-76
2023/04/30 02:01:32;;;;;;;12.13;7.55;;;;;;;6.52;100.00;101375.22;690080;28;1235;-77
2023/04/30 02:01:55;;;;;;;9.55;6.80;;;;;;;6.50;100.00;101376.91;694283;28;1277;-76
2023/04/30 02:02:19;;;;;;;10.98;7.05;;;;;;;6.51;100.00;101381.25;692841;28;1401;-77
2023/04/30 02:02:43;;;;;;;10.82;7.25;;;;;;;6.51;100.00;101378.66;692073;28;4291;-77
2023/04/30 02:03:12;;;;;;;10.98;7.45;;;;;;;6.54;100.00;101382.22;689866;28;932;-78
2023/04/30 02:03:36;;;;;;;10.23;7.07;;;;;;;6.53;100.00;101375.25;686420;28;1358;-77
2023/04/30 02:04:03;;;;;;;12.02;7.20;;;;;;;6.59;100.00;101374.50;682862;28;1510;-76
2023/04/30 02:04:23;;;;;;;10.40;7.10;;;;;;;6.59;100.00;101410.88;686551;28;1269;-76
2023/04/30 02:04:51;;;;;;;11.73;7.55;;;;;;;6.59;100.00;101388.41;687175;28;1277;-77
2023/04/30 02:05:12;;;;;;;11.10;7.05;;;;;;;6.60;100.00;101377.13;682976;28;1441;-76
2023/04/30 02:05:33;;;;;;;10.93;7.00;;;;;;;6.61;100.00;101409.22;682908;28;4447;-78
2023/04/30 02:05:59;;;;;;;11.25;7.40;;;;;;;6.62;100.00;101385.00;682516;28;1347;-76